Time;durP1;ratioP1;P1;durP2;ratioP2;P2;SDS_P1;SDS_P2;PMS_P1;PMS_P2;Temp;Humidity;BMP_temperature;BMP_pressure;BME280_temperature;BME280_humidity;BME280_pressure;Samples;Min_cycle;Max_cycle;Signal;HPM_P1;HPM_P2
2023/04/20 00:01:41;;;;;;;22.67;13.70;;;307.20;2304.00;;;;;;5032177;28;20038;-58
2023/04/20 00:04:07;;;;;;;19.27;12.63;;;307.30;2304.00;;;;;;5032211;28;20067;-59
2023/04/20 00:06:33;;;;;;;22.55;13.70;;;307.20;2304.00;;;;;;5032143;28;20054;-61
2023/04/20 00:09:00;;;;;;;25.55;16.20;;;307.20;2304.00;;;;;;5031933;28;20013;-60
2023/04/20 00:11:27;;;;;;;17.48;11.07;;;307.30;2304.00;;;;;;5031697;28;20093;-65
2023/04/20 00:13:52;;;;;;;16.20;10.43;;;307.30;2304.00;;;;;;5032285;28;20030;-60
2023/04/20 00:16:18;;;;;;;33.60;18.98;;;307.30;2304.00;;;;;;5031557;28;20091;-60
2023/04/20 00:18:47;;;;;;;13.18;8.55;;;307.30;2304.00;;;;;;5031903;28;20057;-60
2023/04/20 00:21:13;;;;;;;18.05;11.15;;;307.30;2304.00;;;;;;5031900;28;20430;-60
2023/04/20 00:23:40;;;;;;;12.20;8.23;;;307.30;2304.00;;;;;;5031433;28;20060;-60
2023/04/20 00:26:05;;;;;;;30.02;17.85;;;307.30;2304.00;;;;;;5031541;28;20017;-60
2023/04/20 00:28:31;;;;;;;14.82;9.52;;;307.30;2304.00;;;;;;5031800;28;20091;-62
2023/04/20 00:30:57;;;;;;;13.23;8.85;;;307.30;2304.00;;;;;;5031681;28;20029;-65
2023/04/20 00:33:22;;;;;;;9.77;6.90;;;307.20;2304.00;;;;;;5031877;28;20104;-59
2023/04/20 00:36:09;;;;;;;8.48;6.95;;;307.20;2304.00;;;;;;5031350;28;20104;-65
2023/04/20 00:38:35;;;;;;;8.95;7.05;;;282.30;2278.40;;;;;;5031523;28;20033;-60
2023/04/20 00:41:01;;;;;;;13.65;9.68;;;307.20;2304.00;;;;;;5031609;28;20018;-66
2023/04/20 00:43:27;;;;;;;10.35;6.50;;;307.20;2304.00;;;;;;5031118;28;20022;-63
2023/04/20 00:45:52;;;;;;;11.00;7.43;;;307.20;2304.00;;;;;;5031815;28;20160;-65
2023/04/20 00:48:19;;;;;;;8.30;7.18;;;307.20;2304.00;;;;;;5031169;28;20479;-60
2023/04/20 00:50:45;;;;;;;15.48;11.13;;;282.50;2278.40;;;;;;5031328;28;20044;-65
2023/04/20 00:53:12;;;;;;;13.65;9.07;;;282.50;2278.40;;;;;;5031205;28;20543;-60
2023/04/20 00:55:38;;;;;;;10.18;6.50;;;282.50;2278.40;;;;;;5031240;28;20037;-65
2023/04/20 00:58:05;;;;;;;11.90;7.88;;;282.50;2278.40;;;;;;5030966;28;20029;-59
2023/04/20 01:00:32;;;;;;;11.70;8.55;;;282.40;2278.40;;;;;;5030635;28;20053;-59
2023/04/20 01:02:58;;;;;;;11.05;7.55;;;282.40;2278.40;;;;;;5030955;28;20025;-59
2023/04/20 01:05:24;;;;;;;12.55;9.20;;;282.30;2278.40;;;;;;5031247;28;20040;-59
2023/04/20 01:07:50;;;;;;;11.45;7.93;;;282.20;2278.40;;;;;;5031061;28;20083;-59
2023/04/20 01:10:16;;;;;;;14.50;10.13;;;282.30;2278.40;;;;;;5030837;28;20018;-62
2023/04/20 01:12:42;;;;;;;10.10;8.35;;;282.30;2278.40;;;;;;5012064;28;20407;-60
2023/04/20 01:15:08;;;;;;;16.35;10.18;;;282.20;2278.40;;;;;;5030661;28;20541;-65
2023/04/20 01:17:36;;;;;;;14.43;10.80;;;282.20;2278.40;;;;;;5030248;28;20029;-60
2023/04/20 01:20:03;;;;;;;14.93;9.05;;;282.30;2278.40;;;;;;5030995;28;20017;-63
2023/04/20 01:22:29;;;;;;;13.52;9.15;;;307.20;2304.00;;;;;;5030639;28;20456;-59
2023/04/20 01:24:55;;;;;;;44.72;25.85;;;282.30;2278.40;;;;;;5029569;28;20065;-59
2023/04/20 01:27:20;;;;;;;13.43;8.82;;;282.30;2278.40;;;;;;5030808;28;20025;-59
2023/04/20 01:29:46;;;;;;;13.00;7.97;;;282.40;2278.40;;;;;;5030686;28;20094;-61
2023/04/20 01:32:12;;;;;;;11.45;7.78;;;282.30;2278.40;;;;;;5034302;28;20029;-61
2023/04/20 01:34:38;;;;;;;10.40;8.70;;;282.30;2278.40;;;;;;5034777;28;20021;-62
2023/04/20 01:37:07;;;;;;;8.85;7.03;;;282.30;2278.40;;;;;;5034519;28;20545;-60
2023/04/20 01:39:38;;;;;;;12.25;8.77;;;282.30;2278.40;;;;;;5035557;28;20028;-64
2023/04/20 01:42:04;;;;;;;12.90;8.82;;;282.20;2278.40;;;;;;5030636;28;20597;-60
2023/04/20 01:44:30;;;;;;;13.30;10.05;;;282.20;2278.40;;;;;;5030858;28;20052;-60
2023/04/20 01:46:57;;;;;;;11.48;9.40;;;;;;;;;;5013126;28;20395;-62
2023/04/20 01:49:23;;;;;;;12.07;8.93;;;;;;;;;;5030535;28;20075;-66
2023/04/20 01:51:49;;;;;;;14.18;10.38;;;;;;;;;;5030612;28;20357;-62
2023/04/20 01:54:15;;;;;;;13.60;10.70;;;;;;;;;;5030186;28;20560;-60
2023/04/20 01:56:41;;;;;;;19.77;11.82;;;;;;;;;;5030177;28;20526;-60
2023/04/20 01:59:07;;;;;;;19.48;12.82;;;;;;;;;;5029729;28;20045;-68
2023/04/20 02:01:34;;;;;;;14.20;10.43;;;;;;;;;;5030274;28;20022;-61
2023/04/20 02:04:00;;;;;;;12.13;9.48;;;;;;;;;;5030698;28;20100;-61
2023/04/20 02:06:26;;;;;;;13.60;8.70;;;;;;;;;;5029840;28;20025;-65
2023/04/20 02:08:52;;;;;;;10.55;7.65;;;;;;;;;;5030365;28;20033;-60
2023/04/20 02:11:18;;;;;;;15.70;10.80;;;;;;;;;;5029743;28;20391;-69
2023/04/20 02:13:44;;;;;;;12.40;9.32;;;;;;;;;;5029623;28;20029;-62
2023/04/20 02:16:11;;;;;;;12.07;9.45;;;;;;;;;;5030069;28;20040;-64
2023/04/20 02:18:38;;;;;;;88.68;50.00;;;;;;;;;;5029984;28;20131;-61
2023/04/20 02:21:04;;;;;;;94.95;50.58;;;;;;;;;;5029743;28;20506;-60
2023/04/20 02:23:30;;;;;;;34.25;20.95;;;;;;;;;;5029987;28;20021;-68
2023/04/20 02:25:56;;;;;;;52.03;30.30;;;;;;;;;;5029272;28;20029;-60
2023/04/20 02:28:22;;;;;;;39.97;24.83;;;;;;;;;;5029520;28;20436;-60
2023/04/20 02:30:49;;;;;;;40.53;23.48;;;;;;;;;;5029467;28;20030;-62
2023/04/20 02:33:15;;;;;;;105.22;59.92;;;;;;;;;;5029463;28;20455;-60
2023/04/20 02:35:41;;;;;;;26.55;18.23;;;;;;;;;;5029397;28;20079;-59
2023/04/20 02:38:07;;;;;;;21.48;15.73;;;;;;;;;;5029537;28;20104;-59
2023/04/20 02:40:33;;;;;;;44.13;29.42;;;;;;;;;;5029567;28;20553;-61
2023/04/20 02:42:59;;;;;;;18.02;12.57;;;;;;;;;;5029586;28;20490;-59
2023/04/20 02:45:25;;;;;;;12.75;8.43;;;;;;;;;;5029155;28;20435;-60
2023/04/20 02:47:51;;;;;;;52.63;26.85;;;;;;;;;;5028797;28;20079;-59
2023/04/20 02:50:17;;;;;;;12.43;8.85;;;;;;;;;;5029522;28;20017;-59
2023/04/20 02:52:43;;;;;;;20.20;11.02;;;;;;;;;;5029554;28;20455;-60
2023/04/20 02:55:11;;;;;;;24.30;12.52;;;;;;;;;;5029014;28;20452;-59
2023/04/20 02:57:37;;;;;;;10.20;7.97;;;;;;;;;;5029286;28;20056;-59
2023/04/20 03:00:03;;;;;;;16.08;11.32;;;;;;;;;;5029030;28;20064;-60
2023/04/20 03:02:29;;;;;;;9.18;7.38;;;;;;;;;;5029200;28;20030;-59
2023/04/20 03:04:55;;;;;;;11.90;8.27;;;;;;;;;;5028729;28;20029;-59
2023/04/20 03:07:21;;;;;;;12.73;9.27;;;;;;;;;;5029723;28;20025;-59
2023/04/20 03:09:47;;;;;;;17.58;10.93;;;;;;;;;;5028912;28;20032;-59
2023/04/20 03:12:13;;;;;;;39.35;22.98;;;;;;;;;;5029179;28;20067;-59
2023/04/20 03:14:39;;;;;;;43.42;23.40;;;;;;;;;;5028969;28;20049;-59
2023/04/20 03:17:06;;;;;;;28.02;17.38;;;;;;;;;;5029108;28;20060;-59
2023/04/20 03:19:32;;;;;;;15.07;10.43;;;;;;;;;;5029318;28;20018;-60
2023/04/20 03:21:58;;;;;;;30.88;22.33;;;;;;;;;;5029214;28;20056;-60
2023/04/20 03:24:24;;;;;;;13.32;9.57;;;;;;;;;;5028946;28;20096;-60
2023/04/20 03:26:50;;;;;;;19.25;14.68;;;;;;;;;;5028830;28;20033;-60
2023/04/20 03:29:16;;;;;;;12.73;9.48;;;;;;;;;;5028734;28;20017;-69
2023/04/20 03:31:42;;;;;;;11.65;9.48;;;;;;;;;;5028825;28;20029;-59
2023/04/20 03:34:08;;;;;;;20.33;13.77;;;;;;;;;;5028809;28;20021;-60
2023/04/20 03:36:34;;;;;;;16.52;11.73;;;;;;;;;;5028194;28;20041;-63
2023/04/20 03:39:00;;;;;;;22.98;15.35;;;;;;;;;;5028949;28;20018;-59
2023/04/20 03:41:26;;;;;;;15.35;11.98;;;;;;;;;;5029184;28;20029;-60
2023/04/20 03:43:52;;;;;;;11.50;9.13;;;;;;;;;;5011198;28;20473;-60
2023/04/20 03:46:18;;;;;;;13.88;9.77;;;;;;;;;;5028307;28;20037;-66
2023/04/20 03:48:44;;;;;;;13.07;9.63;;;;;;;;;;5023336;28;20556;-67
2023/04/20 03:51:10;;;;;;;11.88;7.68;;;;;;;;;;5022019;28;20064;-60
2023/04/20 03:53:36;;;;;;;13.63;7.85;;;;;;;;;;5028540;28;20078;-67
2023/04/20 03:56:03;;;;;;;12.55;10.35;;;;;;;;;;5028930;28;20061;-59
2023/04/20 03:58:29;;;;;;;10.80;7.10;;;;;;;;;;5028131;28;20041;-60
2023/04/20 04:01:03;;;;;;;13.60;7.60;;;;;;;;;;5031680;28;20034;-60
2023/04/20 04:03:29;;;;;;;17.85;10.57;;;;;;;;;;5019704;28;20026;-59
2023/04/20 04:05:56;;;;;;;14.80;8.52;;;;;;;;;;5032248;28;20026;-60
2023/04/20 04:08:22;;;;;;;11.35;8.60;;;;;;;;;;5032419;28;20037;-60
2023/04/20 04:10:48;;;;;;;18.83;10.25;;;307.60;2304.00;;;;;;5031990;28;20116;-60
2023/04/20 04:13:13;;;;;;;10.90;7.63;;;307.60;2304.00;;;;;;5032186;28;20116;-59
2023/04/20 04:15:39;;;;;;;10.52;9.35;;;307.70;2304.00;;;;;;5031943;28;20029;-60
2023/04/20 04:18:05;;;;;;;12.13;8.95;;;307.70;2304.00;;;;;;5031694;28;20502;-60
2023/04/20 04:20:30;;;;;;;11.73;8.63;;;307.80;2304.00;;;;;;5032183;28;20037;-60
2023/04/20 04:22:57;;;;;;;10.45;7.90;;;307.70;2304.00;;;;;;5031498;28;20029;-60
2023/04/20 04:25:22;;;;;;;17.98;11.55;;;307.70;2304.00;;;;;;5032199;28;20009;-60
2023/04/20 04:27:52;;;;;;;14.18;9.65;;;307.80;2304.00;;;;;;5031704;28;20052;-60
2023/04/20 04:30:18;;;;;;;10.57;8.02;;;307.90;2304.00;;;;;;5031934;28;20055;-60
2023/04/20 04:32:45;;;;;;;13.35;9.07;;;307.90;2304.00;;;;;;5032256;28;20060;-70
2023/04/20 04:35:12;;;;;;;17.38;11.27;;;308.00;2304.00;;;;;;5035903;28;20036;-60
2023/04/20 04:37:38;;;;;;;13.93;9.70;;;;;;;;;;5035959;28;20092;-68
2023/04/20 04:40:07;;;;;;;12.65;8.00;;;;;;;;;;5035855;28;20036;-60
2023/04/20 04:42:34;;;;;;;13.07;7.88;;;;;;;;;;5034306;28;20029;-59
2023/04/20 04:45:03;;;;;;;13.35;9.77;;;;;;;;;;5031546;28;20523;-63
2023/04/20 04:47:33;;;;;;;19.08;9.13;;;;;;;;;;5019068;28;20033;-60
2023/04/20 04:50:00;;;;;;;13.77;8.95;;;;;;;;;;5031298;28;20108;-60
2023/04/20 04:52:27;;;;;;;18.17;11.38;;;;;;;;;;5031231;28;20025;-68
2023/04/20 04:54:53;;;;;;;17.02;12.07;;;;;;;;;;5031056;28;20464;-68
2023/04/20 04:57:19;;;;;;;18.73;9.77;;;;;;;;;;5030992;28;20475;-66
2023/04/20 04:59:45;;;;;;;16.15;11.25;;;;;;;;;;5030381;28;20053;-62
2023/04/20 05:02:11;;;;;;;12.52;9.65;;;;;;;;;;5030586;28;20037;-60
2023/04/20 05:04:37;;;;;;;32.65;28.27;;;;;;;;;;5030964;28;20021;-62
2023/04/20 05:07:03;;;;;;;18.95;12.68;;;;;;;;;;5031204;28;20084;-63
2023/04/20 05:09:32;;;;;;;15.68;10.52;;;;;;;;;;5013286;28;20033;-68
2023/04/20 05:12:02;;;;;;;26.58;16.60;;;;;;;;;;5030447;28;20017;-68
2023/04/20 05:14:30;;;;;;;14.32;9.55;;;;;;;;;;5030282;28;20681;-60
2023/04/20 05:16:56;;;;;;;11.00;9.13;;;;;;;;;;5030631;28;20040;-61
2023/04/20 05:19:22;;;;;;;16.05;8.70;;;;;;;;;;5031052;28;20035;-61
2023/04/20 05:21:48;;;;;;;15.65;9.63;;;;;;;;;;5030599;28;20479;-59
2023/04/20 05:24:16;;;;;;;14.35;10.65;;;;;;;;;;5030685;28;20034;-59
2023/04/20 05:26:42;;;;;;;14.50;10.70;;;;;;;;;;5031295;28;20387;-62
2023/04/20 05:29:08;;;;;;;11.90;8.70;;;;;;;;;;5030106;28;20471;-60
2023/04/20 05:31:34;;;;;;;13.02;9.50;;;;;;;;;;5030471;28;20480;-60
2023/04/20 05:34:01;;;;;;;12.63;8.82;;;;;;;;;;5030397;28;20029;-66
2023/04/20 05:36:28;;;;;;;77.32;46.03;;;;;;;;;;5030425;28;20084;-66
2023/04/20 05:38:55;;;;;;;26.20;18.42;;;;;;;;;;5030478;28;20494;-63
2023/04/20 05:41:25;;;;;;;15.57;10.75;;;;;;;;;;5030644;28;20471;-66
2023/04/20 05:43:52;;;;;;;11.68;8.02;;;;;;;;;;5030262;28;20472;-60
2023/04/20 05:46:18;;;;;;;12.00;8.68;;;435.70;2355.20;;;;;;5030290;28;20040;-65
2023/04/20 05:48:44;;;;;;;10.50;7.53;;;;;;;;;;5030245;28;20410;-60
2023/04/20 05:51:09;;;;;;;10.55;7.95;;;486.60;2201.60;;;;;;5030523;28;20498;-65
2023/04/20 05:53:35;;;;;;;12.30;8.27;;;487.30;2150.40;;;;;;5030049;28;20017;-66
2023/04/20 05:56:02;;;;;;;11.32;9.13;;;538.20;1971.20;;;;;;5030259;28;20513;-65
2023/04/20 05:58:28;;;;;;;12.95;8.48;;;538.50;1894.40;;;;;;5029214;28;20422;-61
2023/04/20 06:00:53;;;;;;;12.80;9.20;;;537.70;1971.20;;;;;;5030186;28;20036;-59
2023/04/20 06:03:19;;;;;;;11.68;8.63;;;512.70;1971.20;;;;;;5029974;28;20505;-66
2023/04/20 06:05:45;;;;;;;11.32;8.73;;;512.50;1971.20;;;;;;5029914;28;20029;-60
2023/04/20 06:08:11;;;;;;;11.43;8.88;;;512.00;1996.80;;;;;;5029948;28;20023;-60
2023/04/20 06:10:37;;;;;;;12.57;8.70;;;512.40;1996.80;;;;;;5029791;28;20356;-65
2023/04/20 06:13:02;;;;;;;10.82;8.70;;;487.30;1996.80;;;;;;5029651;28;20071;-65
2023/04/20 06:15:28;;;;;;;9.55;8.45;;;487.20;2022.40;;;;;;5028753;28;20025;-68
2023/04/20 06:17:54;;;;;;;16.23;9.32;;;487.00;2073.60;;;;;;5028959;28;20033;-61
2023/04/20 06:20:20;;;;;;;11.02;9.30;;;486.80;2099.20;;;;;;5029078;28;20475;-60
2023/04/20 06:22:46;;;;;;;13.75;9.77;;;537.60;1996.80;;;;;;5028651;28;20057;-61
2023/04/20 06:25:12;;;;;;;10.65;9.55;;;564.10;2022.40;;;;;;5029106;28;20060;-61
2023/04/20 06:27:38;;;;;;;12.38;9.82;;;563.40;1894.40;;;;;;5029651;28;20046;-62
2023/04/20 06:30:05;;;;;;;10.45;9.35;;;564.00;1868.80;;;;;;5029076;28;20033;-62
2023/04/20 06:32:31;;;;;;;15.57;10.88;;;589.60;1817.60;;;;;;5029587;28;20483;-62
2023/04/20 06:34:56;;;;;;;11.45;10.23;;;614.80;1740.80;;;;;;5029402;28;20025;-61
2023/04/20 06:37:22;;;;;;;11.75;9.43;;;640.50;1664.00;;;;;;5029716;28;20483;-61
2023/04/20 06:39:55;;;;;;;12.73;10.85;;;716.80;1561.60;;;;;;5029078;28;20036;-61
2023/04/20 06:42:21;;;;;;;13.88;11.38;;;743.00;1459.20;;;;;;5029407;28;20475;-61
2023/04/20 06:44:47;;;;;;;12.43;11.13;;;793.60;1408.00;;;;;;5028094;28;20053;-61
2023/04/20 06:47:12;;;;;;;12.80;11.52;;;794.30;1382.40;;;;;;5029275;28;20133;-61
2023/04/20 06:49:38;;;;;;;12.55;11.25;;;844.90;1331.20;;;;;;5029437;28;20026;-62
2023/04/20 06:52:07;;;;;;;14.70;13.15;;;845.70;1254.40;;;;;;5028997;28;20022;-60
2023/04/20 06:54:33;;;;;;;13.43;12.15;;;845.10;1280.00;;;;;;5029614;28;20033;-59
2023/04/20 06:57:00;;;;;;;13.38;12.18;;;845.50;1254.40;;;;;;5015972;28;20040;-60
2023/04/20 06:59:25;;;;;;;14.55;12.88;;;871.10;1203.20;;;;;;5028677;28;20120;-60
2023/04/20 07:01:51;;;;;;;14.50;13.05;;;870.50;1203.20;;;;;;5029292;28;20029;-61
2023/04/20 07:04:17;;;;;;;15.57;13.40;;;870.50;1203.20;;;;;;5028537;28;20033;-60
2023/04/20 07:06:43;;;;;;;15.75;13.00;;;871.20;1152.00;;;;;;5029167;28;20135;-62
2023/04/20 07:09:08;;;;;;;14.88;13.50;;;896.70;1126.40;;;;;;5023409;28;20467;-60
2023/04/20 07:11:34;;;;;;;14.07;12.88;;;896.90;1100.80;;;;;;5027848;28;20033;-60
2023/04/20 07:14:00;;;;;;;16.50;14.90;;;896.00;1126.40;;;;;;5028520;28;20037;-61
2023/04/20 07:16:26;;;;;;;15.02;13.77;;;922.00;1126.40;;;;;;5027913;28;20172;-61
2023/04/20 07:18:51;;;;;;;18.48;16.55;;;921.90;1152.00;;;;;;5028789;28;20056;-60
2023/04/20 07:21:17;;;;;;;20.70;16.48;;;972.80;1075.20;;;;;;5029046;28;20037;-62
2023/04/20 07:23:43;;;;;;;20.83;19.02;;;;;;;;;;5028056;28;20467;-60
2023/04/20 07:26:09;;;;;;;18.33;16.75;;;947.60;1075.20;;;;;;5027322;28;20534;-61
2023/04/20 07:28:35;;;;;;;21.45;19.60;;;972.80;1049.60;;;;;;5025008;28;20112;-60
2023/04/20 07:31:01;;;;;;;17.95;16.35;;;947.70;1049.60;;;;;;5027399;28;20045;-60
2023/04/20 07:33:28;;;;;;;24.40;22.20;;;;;;;;;;5028031;28;20026;-60
2023/04/20 07:35:54;;;;;;;21.02;18.98;;;;;;;;;;5030833;28;20128;-61
2023/04/20 07:38:20;;;;;;;20.80;19.00;;;;;;;;;;5031442;28;20379;-60
2023/04/20 07:40:46;;;;;;;17.65;16.05;;;;;;;;;;5030467;28;20029;-60
2023/04/20 07:43:12;;;;;;;18.45;16.83;;;972.90;1049.60;;;;;;5031142;28;20029;-60
2023/04/20 07:45:41;;;;;;;17.23;15.90;;;998.90;1024.00;;;;;;5030719;28;20033;-61
2023/04/20 07:48:08;;;;;;;16.65;15.27;;;998.60;998.40;;;;;;5030839;28;20033;-66
2023/04/20 07:50:34;;;;;;;17.15;15.75;;;1024.10;972.80;;;;;;5031196;28;20029;-61
2023/04/20 07:53:01;;;;;;;15.57;14.07;;;998.40;998.40;;;;;;5030642;28;20518;-61
2023/04/20 07:55:26;;;;;;;14.77;13.38;;;998.80;998.40;;;;;;5030369;28;20041;-61
2023/04/20 07:57:52;;;;;;;20.35;18.73;;;947.50;1024.00;;;;;;5030991;28;20092;-62
2023/04/20 08:00:18;;;;;;;15.10;13.82;;;973.30;1024.00;;;;;;5030518;28;20064;-62
2023/04/20 08:02:44;;;;;;;14.98;13.45;;;947.70;972.80;;;;;;5030458;28;20519;-65
2023/04/20 08:05:09;;;;;;;18.88;17.08;;;870.60;1100.80;;;;;;5030648;28;20112;-61
2023/04/20 08:07:35;;;;;;;15.98;14.30;;;794.10;1203.20;;;;;;5029946;28;20076;-61
2023/04/20 08:10:01;;;;;;;16.13;14.38;;;742.80;1305.60;;;;;;5030587;28;20025;-61
2023/04/20 08:12:27;;;;;;;48.78;43.97;;;691.60;1382.40;;;;;;5030495;28;20032;-61
2023/04/20 08:14:53;;;;;;;17.60;13.43;;;691.30;1356.80;;;;;;5030561;28;20017;-62
2023/04/20 08:17:19;;;;;;;16.55;13.52;;;666.10;1408.00;;;;;;5029656;28;20034;-62
2023/04/20 08:19:45;;;;;;;16.67;13.18;;;640.40;1459.20;;;;;;5030313;28;20024;-63
2023/04/20 08:22:11;;;;;;;14.88;13.25;;;615.10;1536.00;;;;;;5032709;28;20349;-63
2023/04/20 08:24:37;;;;;;;15.32;12.45;;;614.70;1536.00;;;;;;5031873;28;20116;-62
2023/04/20 08:27:03;;;;;;;23.83;21.20;;;589.70;1561.60;;;;;;5032107;28;20026;-61
2023/04/20 08:29:28;;;;;;;72.05;64.38;;;589.30;1587.20;;;;;;5013631;28;20051;-63
2023/04/20 08:31:54;;;;;;;64.28;56.03;;;589.30;1612.80;;;;;;5031142;28;20030;-63
2023/04/20 08:34:20;;;;;;;18.92;16.92;;;589.30;1612.80;;;;;;5031829;28;20033;-63
2023/04/20 08:36:46;;;;;;;30.98;27.88;;;588.90;1664.00;;;;;;5031274;28;20069;-62
2023/04/20 08:39:18;;;;;;;18.48;15.43;;;588.80;1638.40;;;;;;5031811;28;20057;-62
2023/04/20 08:41:43;;;;;;;19.83;15.40;;;588.80;1638.40;;;;;;5031324;28;20033;-62
2023/04/20 08:44:09;;;;;;;33.60;27.10;;;563.90;1689.60;;;;;;5031452;28;20025;-62
2023/04/20 08:46:36;;;;;;;17.85;15.93;;;564.00;1664.00;;;;;;5030282;28;20025;-63
2023/04/20 08:49:02;;;;;;;16.48;14.73;;;564.10;1689.60;;;;;;5031591;28;20030;-62
2023/04/20 08:51:29;;;;;;;26.17;19.30;;;563.90;1689.60;;;;;;5031364;28;20083;-62
2023/04/20 08:53:57;;;;;;;20.20;18.15;;;563.70;1689.60;;;;;;5031166;28;20087;-62
2023/04/20 08:56:36;;;;;;;17.80;15.07;;;563.70;1715.20;;;;;;5031085;28;20372;-62
2023/04/20 08:59:04;;;;;;;48.40;33.80;;;564.10;1664.00;;;;;;5030960;28;20050;-62
2023/04/20 09:01:31;;;;;;;15.88;14.20;;;564.10;1638.40;;;;;;5030847;28;20121;-61
2023/04/20 09:03:58;;;;;;;15.98;13.45;;;563.80;1689.60;;;;;;5031122;28;20049;-63
2023/04/20 09:06:24;;;;;;;31.13;24.38;;;563.60;1715.20;;;;;;5030895;28;20029;-62
2023/04/20 09:08:50;;;;;;;16.00;14.35;;;563.50;1689.60;;;;;;5031397;28;20487;-62
2023/04/20 09:11:26;;;;;;;17.35;11.73;;;538.50;1689.60;;;;;;5030933;28;20420;-62
2023/04/20 09:14:09;;;;;;;13.13;11.73;;;563.40;1740.80;;;;;;5030799;28;20023;-61
2023/04/20 09:16:36;;;;;;;12.48;11.18;;;564.00;1715.20;;;;;;5030760;28;20113;-62
2023/04/20 09:19:02;;;;;;;29.00;25.98;;;589.00;1689.60;;;;;;5030982;28;20041;-60
2023/04/20 09:21:28;;;;;;;14.40;12.02;;;588.80;1715.20;;;;;;5030130;28;20026;-61
2023/04/20 09:23:58;;;;;;;15.15;13.55;;;564.00;1715.20;;;;;;5030754;28;20025;-61
2023/04/20 09:26:24;;;;;;;17.55;13.02;;;563.90;1689.60;;;;;;5030603;28;20491;-62
2023/04/20 09:28:50;;;;;;;52.42;35.80;;;563.70;1715.20;;;;;;5030207;28;20036;-62
2023/04/20 09:31:20;;;;;;;12.93;10.50;;;563.60;1715.20;;;;;;5030263;28;20375;-61
2023/04/20 09:34:00;;;;;;;26.02;19.45;;;563.60;1715.20;;;;;;5030131;28;20033;-61
2023/04/20 09:36:49;;;;;;;13.18;10.98;;;563.50;1715.20;;;;;;5030090;28;20037;-62
2023/04/20 09:39:22;;;;;;;13.90;11.63;;;563.20;1715.20;;;;;;5030043;28;20025;-62
2023/04/20 09:41:50;;;;;;;13.20;10.52;;;563.50;1715.20;;;;;;5029993;28;20189;-61
2023/04/20 09:44:17;;;;;;;13.75;12.18;;;563.40;1715.20;;;;;;5030072;28;20479;-61
2023/04/20 09:46:44;;;;;;;13.38;11.27;;;538.40;1664.00;;;;;;5030475;28;20452;-61
2023/04/20 09:49:12;;;;;;;124.05;61.63;;;538.40;1689.60;;;;;;5030092;28;20030;-61
2023/04/20 09:51:43;;;;;;;15.63;11.77;;;538.50;1689.60;;;;;;5029873;28;20475;-61
2023/04/20 09:54:10;;;;;;;32.55;23.73;;;538.50;1689.60;;;;;;5030323;28;20029;-61
2023/04/20 09:56:38;;;;;;;24.92;20.73;;;538.40;1689.60;;;;;;5030085;28;20036;-60
2023/04/20 09:59:04;;;;;;;29.40;20.27;;;538.00;1715.20;;;;;;5029749;28;20052;-60
2023/04/20 10:01:32;;;;;;;13.93;11.23;;;537.80;1664.00;;;;;;5029761;28;20034;-61
2023/04/20 10:04:00;;;;;;;16.35;12.15;;;538.00;1638.40;;;;;;5029726;28;20026;-62
2023/04/20 10:06:29;;;;;;;15.27;12.40;;;538.00;1561.60;;;;;;5029549;28;20025;-61
2023/04/20 10:08:56;;;;;;;14.32;9.20;;;538.30;1612.80;;;;;;5029829;28;20022;-61
2023/04/20 10:11:34;;;;;;;13.90;11.85;;;538.50;1536.00;;;;;;5030115;28;20371;-61
2023/04/20 10:14:21;;;;;;;31.52;28.35;;;538.50;1510.40;;;;;;5029715;28;20064;-61
2023/04/20 10:17:05;;;;;;;15.15;11.20;;;563.40;1561.60;;;;;;5028862;28;20075;-61
2023/04/20 10:19:41;;;;;;;16.60;11.75;;;538.50;1561.60;;;;;;5029887;28;20076;-61
2023/04/20 10:22:09;;;;;;;14.38;11.25;;;538.40;1638.40;;;;;;5029842;28;20037;-61
2023/04/20 10:24:37;;;;;;;9.80;7.72;;;538.10;1587.20;;;;;;5029107;28;20097;-62
2023/04/20 10:27:03;;;;;;;12.32;9.40;;;538.30;1638.40;;;;;;5029588;28;20057;-61
2023/04/20 10:29:30;;;;;;;10.43;6.60;;;538.30;1561.60;;;;;;5029151;28;20156;-62
2023/04/20 10:31:56;;;;;;;10.48;8.68;;;538.10;1587.20;;;;;;5029504;28;20033;-61
2023/04/20 10:34:32;;;;;;;26.10;21.90;;;538.00;1587.20;;;;;;5029330;28;20029;-63
2023/04/20 10:37:08;;;;;;;14.55;11.65;;;538.00;1587.20;;;;;;5029108;28;20116;-61
2023/04/20 10:39:36;;;;;;;16.75;15.15;;;512.90;1561.60;;;;;;5029674;28;20441;-62
2023/04/20 10:42:02;;;;;;;11.98;10.43;;;512.80;1587.20;;;;;;5029345;28;20080;-61
2023/04/20 10:44:29;;;;;;;14.40;11.35;;;512.90;1561.60;;;;;;5029051;28;20037;-61
2023/04/20 10:46:55;;;;;;;13.35;11.13;;;537.80;1638.40;;;;;;5028904;28;20022;-61
2023/04/20 10:49:28;;;;;;;37.35;33.85;;;537.80;1612.80;;;;;;5029645;28;20053;-61
2023/04/20 10:51:54;;;;;;;16.80;14.23;;;537.70;1638.40;;;;;;5029401;28;20367;-61
2023/04/20 10:54:21;;;;;;;37.00;26.30;;;512.90;1587.20;;;;;;5029336;28;20104;-61
2023/04/20 10:56:51;;;;;;;15.30;12.50;;;512.80;1612.80;;;;;;5028952;28;20041;-61
2023/04/20 10:59:22;;;;;;;14.82;12.93;;;512.60;1638.40;;;;;;5029098;28;20411;-61
2023/04/20 11:01:48;;;;;;;13.50;9.80;;;512.50;1612.80;;;;;;5029080;28;20030;-61
2023/04/20 11:04:14;;;;;;;15.70;10.32;;;512.60;1612.80;;;;;;5029292;28;20046;-63
2023/04/20 11:06:45;;;;;;;18.08;13.18;;;537.90;1638.40;;;;;;5029407;28;20053;-61
2023/04/20 11:09:18;;;;;;;9.68;7.22;;;538.40;1638.40;;;;;;5031605;28;20533;-62
2023/04/20 11:11:44;;;;;;;10.13;8.38;;;563.30;1638.40;;;;;;5033030;28;20033;-64
2023/04/20 11:14:11;;;;;;;9.40;6.93;;;563.60;1664.00;;;;;;5032961;28;20376;-61
2023/04/20 11:16:38;;;;;;;9.30;8.20;;;563.60;1689.60;;;;;;5032544;28;20426;-65
2023/04/20 11:19:04;;;;;;;15.23;8.50;;;563.90;1587.20;;;;;;5032990;28;20476;-62
2023/04/20 11:21:38;;;;;;;12.88;7.72;;;563.70;1510.40;;;;;;5019902;28;20033;-64
2023/04/20 11:24:17;;;;;;;15.18;12.18;;;563.40;1561.60;;;;;;5032661;28;20152;-63
2023/04/20 11:26:42;;;;;;;16.75;13.18;;;563.40;1587.20;;;;;;5033241;28;20030;-64
2023/04/20 11:29:08;;;;;;;32.05;23.95;;;563.30;1536.00;;;;;;5032488;28;20033;-62
2023/04/20 11:31:34;;;;;;;19.73;12.55;;;563.50;1536.00;;;;;;5032566;28;20107;-62
2023/04/20 11:34:00;;;;;;;14.55;9.88;;;563.30;1561.60;;;;;;5032500;28;20136;-64
2023/04/20 11:36:28;;;;;;;9.82;8.80;;;538.40;1510.40;;;;;;5032521;28;20036;-61
2023/04/20 11:38:54;;;;;;;15.15;11.63;;;538.20;1536.00;;;;;;5032366;28;20826;-64
2023/04/20 11:41:20;;;;;;;20.27;14.75;;;538.50;1536.00;;;;;;5032685;28;20033;-62
2023/04/20 11:43:47;;;;;;;11.68;10.50;;;538.50;1536.00;;;;;;5031548;28;20021;-62
2023/04/20 11:46:19;;;;;;;16.00;13.02;;;538.40;1510.40;;;;;;5031112;28;20117;-62
2023/04/20 11:48:46;;;;;;;37.25;25.77;;;538.20;1510.40;;;;;;5032314;28;20021;-61
2023/04/20 11:51:12;;;;;;;17.33;12.77;;;538.10;1536.00;;;;;;5032508;28;20029;-66
2023/04/20 11:53:38;;;;;;;23.85;10.27;;;538.20;1510.40;;;;;;5031916;28;20869;-62
2023/04/20 11:56:05;;;;;;;20.05;14.43;;;538.10;1510.40;;;;;;5031983;28;20046;-63
2023/04/20 11:58:31;;;;;;;14.57;11.93;;;537.80;1612.80;;;;;;5031714;28;20531;-62
2023/04/20 12:00:57;;;;;;;12.98;10.85;;;537.80;1612.80;;;;;;5031944;28;20471;-62
2023/04/20 12:03:23;;;;;;;15.05;9.48;;;537.60;1638.40;;;;;;5031868;28;20024;-64
2023/04/20 12:05:48;;;;;;;13.05;8.95;;;512.60;1638.40;;;;;;5032138;28;20100;-62
2023/04/20 12:08:16;;;;;;;13.30;8.07;;;512.40;1638.40;;;;;;5031882;28;20021;-62
2023/04/20 12:10:41;;;;;;;16.20;12.55;;;512.30;1612.80;;;;;;5032394;28;20026;-62
2023/04/20 12:13:07;;;;;;;31.10;20.30;;;512.20;1612.80;;;;;;5031865;28;20022;-62
2023/04/20 12:15:33;;;;;;;14.38;11.82;;;512.50;1638.40;;;;;;5031882;28;20033;-62
2023/04/20 12:17:58;;;;;;;21.33;12.52;;;512.60;1612.80;;;;;;5031483;28;20097;-63
2023/04/20 12:20:24;;;;;;;14.60;10.20;;;512.90;1587.20;;;;;;5030464;28;20017;-62
2023/04/20 12:22:50;;;;;;;13.90;10.38;;;537.80;1612.80;;;;;;5030957;28;20025;-65
2023/04/20 12:25:16;;;;;;;23.45;15.18;;;537.90;1587.20;;;;;;5031433;28;20025;-66
2023/04/20 12:27:42;;;;;;;10.07;8.20;;;538.50;1612.80;;;;;;5018425;28;20036;-64
2023/04/20 12:30:08;;;;;;;12.75;9.85;;;563.40;1638.40;;;;;;5031390;28;20056;-64
2023/04/20 12:32:34;;;;;;;16.30;12.32;;;563.80;1587.20;;;;;;5031046;28;20029;-63
2023/04/20 12:35:00;;;;;;;14.70;11.23;;;563.70;1536.00;;;;;;5031447;28;20028;-65
2023/04/20 12:37:26;;;;;;;10.30;8.63;;;563.60;1510.40;;;;;;5031266;28;20382;-62
2023/04/20 12:39:52;;;;;;;8.23;7.07;;;563.50;1536.00;;;;;;5031627;28;20017;-63